Time;durP1;ratioP1;P1;durP2;ratioP2;P2;SDS_P1;SDS_P2;PMS_P1;PMS_P2;Temp;Humidity;BMP_temperature;BMP_pressure;BME280_temperature;BME280_humidity;BME280_pressure;Samples;Min_cycle;Max_cycle;Signal;HPM_P1;HPM_P2
2023/04/20 00:00:10;;;;;;;20.85;15.73;;;23.10;45.80;;;;;;5040763;28;20029;-66
2023/04/20 00:02:37;;;;;;;21.90;16.25;;;23.10;45.80;;;;;;5046941;28;20056;-66
2023/04/20 00:05:06;;;;;;;21.00;15.45;;;23.10;45.80;;;;;;5056585;28;20041;-66
2023/04/20 00:07:32;;;;;;;21.17;15.40;;;23.10;45.80;;;;;;5039745;28;20619;-66
2023/04/20 00:09:57;;;;;;;22.25;16.25;;;23.10;45.80;;;;;;5044679;28;20029;-65
2023/04/20 00:12:23;;;;;;;21.70;16.08;;;23.00;45.80;;;;;;5037504;28;20098;-66
2023/04/20 00:14:49;;;;;;;19.95;15.45;;;23.00;45.80;;;;;;5040786;28;20428;-66
2023/04/20 00:17:14;;;;;;;20.15;14.45;;;23.00;45.80;;;;;;5042970;28;20013;-66
2023/04/20 00:19:40;;;;;;;18.63;14.65;;;23.00;45.80;;;;;;5037251;28;20021;-66
2023/04/20 00:22:05;;;;;;;20.15;14.63;;;23.00;45.90;;;;;;5039176;28;20040;-66
2023/04/20 00:24:31;;;;;;;18.60;14.32;;;23.00;45.90;;;;;;5040946;28;20104;-67
2023/04/20 00:26:56;;;;;;;16.67;13.05;;;22.90;45.80;;;;;;5035724;28;20061;-66
2023/04/20 00:29:22;;;;;;;17.85;13.68;;;22.90;45.80;;;;;;5039046;28;20091;-66
2023/04/20 00:31:48;;;;;;;17.13;12.82;;;22.90;45.80;;;;;;5040793;28;20473;-66
2023/04/20 00:34:14;;;;;;;18.90;14.10;;;22.90;45.80;;;;;;5036955;28;20481;-66
2023/04/20 00:36:40;;;;;;;18.40;13.85;;;22.90;45.80;;;;;;5035817;28;20515;-66
2023/04/20 00:39:06;;;;;;;17.65;13.20;;;22.90;45.90;;;;;;5038863;28;20029;-66
2023/04/20 00:41:31;;;;;;;16.98;12.57;;;22.90;45.90;;;;;;5037728;28;20508;-67
2023/04/20 00:43:57;;;;;;;17.45;13.30;;;22.90;45.90;;;;;;5039367;28;20343;-66
2023/04/20 00:46:23;;;;;;;17.13;12.77;;;22.80;45.80;;;;;;5035818;28;20032;-67
2023/04/20 00:48:53;;;;;;;15.40;12.18;;;22.80;45.90;;;;;;5039877;28;20033;-67
2023/04/20 00:51:22;;;;;;;17.10;11.73;;;22.80;45.90;;;;;;5039007;28;20489;-67
2023/04/20 00:53:48;;;;;;;16.48;12.27;;;22.80;45.90;;;;;;5038796;28;20036;-66
2023/04/20 00:56:15;;;;;;;15.27;11.32;;;22.80;45.90;;;;;;5036341;28;20485;-66
2023/04/20 00:58:42;;;;;;;16.38;11.90;;;22.70;45.90;;;;;;5040850;28;20029;-66
2023/04/20 01:01:09;;;;;;;15.30;11.52;;;22.70;45.90;;;;;;5048254;28;20497;-66
2023/04/20 01:03:35;;;;;;;16.10;11.75;;;22.70;45.90;;;;;;5047221;28;20103;-66
2023/04/20 01:06:01;;;;;;;15.98;11.32;;;22.70;45.90;;;;;;5047398;28;20481;-66
2023/04/20 01:08:27;;;;;;;13.98;10.43;;;22.70;45.90;;;;;;5045296;28;20029;-66
2023/04/20 01:10:56;;;;;;;14.70;11.23;;;22.70;45.90;;;;;;5041691;28;20032;-65
2023/04/20 01:13:22;;;;;;;14.75;10.90;;;22.60;45.90;;;;;;5044435;28;20033;-66
2023/04/20 01:15:48;;;;;;;14.05;10.50;;;22.70;46.00;;;;;;5044386;28;20441;-66
2023/04/20 01:18:16;;;;;;;15.60;11.40;;;22.60;46.00;;;;;;5048009;28;20471;-66
2023/04/20 01:20:42;;;;;;;15.00;11.27;;;22.60;46.00;;;;;;5047240;28;20036;-65
2023/04/20 01:23:08;;;;;;;13.20;10.70;;;22.60;46.00;;;;;;5042911;28;20513;-66
2023/04/20 01:25:34;;;;;;;14.13;10.82;;;22.60;46.00;;;;;;5045385;28;20108;-66
2023/04/20 01:28:00;;;;;;;14.77;10.73;;;22.60;46.00;;;;;;5042793;28;20114;-66
2023/04/20 01:30:26;;;;;;;13.68;10.13;;;22.60;46.00;;;;;;5046285;28;20030;-66
2023/04/20 01:32:52;;;;;;;14.40;10.13;;;22.50;46.00;;;;;;5042159;28;20043;-66
2023/04/20 01:35:17;;;;;;;13.02;10.18;;;22.50;46.00;;;;;;5044291;28;20036;-66
2023/04/20 01:37:43;;;;;;;12.90;9.38;;;22.50;46.00;;;;;;5044453;28;20117;-66
2023/04/20 01:40:10;;;;;;;12.07;9.93;;;22.50;46.00;;;;;;5044753;28;20513;-66
2023/04/20 01:42:36;;;;;;;14.75;10.80;;;22.50;46.00;;;;;;5044012;28;20504;-66
2023/04/20 01:45:05;;;;;;;13.30;10.27;;;22.50;46.00;;;;;;5044353;28;20017;-66
2023/04/20 01:47:31;;;;;;;13.30;10.25;;;22.50;46.00;;;;;;5046377;28;20029;-66
2023/04/20 01:49:56;;;;;;;13.68;10.05;;;22.50;46.10;;;;;;5043692;28;20063;-66
2023/04/20 01:52:22;;;;;;;12.40;9.70;;;22.50;46.10;;;;;;5046213;28;20546;-65
2023/04/20 01:54:47;;;;;;;12.70;9.73;;;22.40;46.00;;;;;;5047818;28;20099;-66
2023/04/20 01:57:13;;;;;;;13.57;10.25;;;22.40;46.00;;;;;;5042103;28;20120;-65
2023/04/20 01:59:39;;;;;;;13.38;9.77;;;22.40;46.00;;;;;;5045726;28;20373;-66
2023/04/20 02:02:04;;;;;;;13.35;9.80;;;22.40;46.00;;;;;;5045133;28;20021;-66
2023/04/20 02:04:30;;;;;;;12.85;9.52;;;22.40;46.00;;;;;;5044669;28;20030;-66
2023/04/20 02:06:56;;;;;;;13.20;9.73;;;22.30;46.00;;;;;;5044096;28;20370;-66
2023/04/20 02:09:21;;;;;;;12.65;9.25;;;22.30;46.00;;;;;;5044077;28;20549;-66
2023/04/20 02:11:47;;;;;;;12.98;10.05;;;22.40;46.10;;;;;;5040380;28;20025;-66
2023/04/20 02:14:13;;;;;;;12.30;9.38;;;22.30;46.10;;;;;;5042106;28;20035;-66
2023/04/20 02:16:38;;;;;;;12.00;9.20;;;22.30;46.00;;;;;;5040360;28;20397;-66
2023/04/20 02:19:04;;;;;;;12.38;9.35;;;22.30;46.10;;;;;;5042685;28;20033;-66
2023/04/20 02:21:30;;;;;;;12.25;9.02;;;22.30;46.10;;;;;;5043203;28;20044;-66
2023/04/20 02:23:56;;;;;;;11.80;9.35;;;22.30;46.10;;;;;;5041839;28;20357;-66
2023/04/20 02:26:22;;;;;;;12.27;8.90;;;22.30;46.10;;;;;;5041707;28;20064;-66
2023/04/20 02:28:48;;;;;;;12.93;9.40;;;22.30;46.10;;;;;;5039197;28;20037;-66
2023/04/20 02:31:13;;;;;;;11.13;8.77;;;22.20;46.10;;;;;;5041630;28;20044;-66
2023/04/20 02:33:39;;;;;;;11.68;8.30;;;22.20;46.10;;;;;;5042653;28;20370;-66
2023/04/20 02:36:05;;;;;;;12.90;9.10;;;22.20;46.10;;;;;;5043048;28;20124;-66
2023/04/20 02:38:31;;;;;;;10.77;8.32;;;22.20;46.10;;;;;;5040813;28;20025;-66
2023/04/20 02:40:56;;;;;;;12.18;8.73;;;22.20;46.10;;;;;;5041240;28;20041;-66
2023/04/20 02:43:22;;;;;;;12.55;9.25;;;22.20;46.10;;;;;;5039380;28;20044;-66
2023/04/20 02:45:47;;;;;;;11.95;9.00;;;22.20;46.20;;;;;;5040808;28;20029;-66
2023/04/20 02:48:13;;;;;;;10.50;8.27;;;22.20;46.10;;;;;;5038712;28;20436;-66
2023/04/20 02:50:41;;;;;;;10.90;8.23;;;22.10;46.10;;;;;;5042036;28;20040;-66
2023/04/20 02:53:06;;;;;;;11.50;8.55;;;22.20;46.20;;;;;;5040950;28;20485;-66
2023/04/20 02:55:32;;;;;;;12.15;8.30;;;22.10;46.10;;;;;;5039073;28;20039;-66
2023/04/20 02:57:58;;;;;;;11.80;8.93;;;22.10;46.10;;;;;;5040202;28;20032;-67
2023/04/20 03:00:23;;;;;;;11.43;8.88;;;22.10;46.10;;;;;;5042322;28;20097;-66
2023/04/20 03:02:49;;;;;;;10.82;8.52;;;22.10;46.10;;;;;;5040866;28;20068;-66
2023/04/20 03:05:15;;;;;;;11.05;8.18;;;22.10;46.20;;;;;;5040721;28;20032;-66
2023/04/20 03:07:41;;;;;;;10.95;8.32;;;22.10;46.20;;;;;;5039067;28;20040;-66
2023/04/20 03:10:07;;;;;;;11.15;8.07;;;22.10;46.20;;;;;;5040937;28;20025;-66
2023/04/20 03:12:33;;;;;;;10.18;8.13;;;22.10;46.20;;;;;;5040392;28;20107;-66
2023/04/20 03:14:59;;;;;;;9.60;7.47;;;22.10;46.20;;;;;;5036548;28;20186;-66
2023/04/20 03:17:24;;;;;;;10.02;7.75;;;22.00;46.20;;;;;;5042803;28;20062;-66
2023/04/20 03:19:50;;;;;;;10.70;8.05;;;22.10;46.20;;;;;;5040615;28;20119;-66
2023/04/20 03:22:18;;;;;;;9.80;7.53;;;22.00;46.20;;;;;;5039700;28;20346;-66
2023/04/20 03:24:44;;;;;;;10.02;7.82;;;22.00;46.20;;;;;;5039567;28;20033;-66
2023/04/20 03:27:09;;;;;;;9.45;7.60;;;22.00;46.20;;;;;;5039959;28;20044;-66
2023/04/20 03:29:35;;;;;;;10.45;7.63;;;22.00;46.20;;;;;;5037297;28;20087;-65
2023/04/20 03:32:00;;;;;;;9.88;7.20;;;22.00;46.20;;;;;;5038666;28;20120;-66
2023/04/20 03:34:26;;;;;;;9.05;7.05;;;22.00;46.20;;;;;;5040345;28;20044;-66
2023/04/20 03:36:52;;;;;;;9.27;7.20;;;22.00;46.30;;;;;;5040414;28;20021;-66
2023/04/20 03:39:17;;;;;;;9.68;7.03;;;22.00;46.20;;;;;;5047672;28;20025;-66
2023/04/20 03:41:43;;;;;;;9.88;7.32;;;22.00;46.30;;;;;;5036496;28;20119;-66
2023/04/20 03:44:09;;;;;;;9.50;7.10;;;22.00;46.30;;;;;;5041565;28;20028;-66
2023/04/20 03:46:35;;;;;;;8.55;6.82;;;22.00;46.30;;;;;;5039122;28;20444;-66
2023/04/20 03:49:01;;;;;;;9.07;6.47;;;21.90;46.30;;;;;;5039290;28;20021;-66
2023/04/20 03:51:26;;;;;;;9.68;7.15;;;21.90;46.30;;;;;;5041730;28;20389;-66
2023/04/20 03:53:52;;;;;;;8.48;6.22;;;21.90;46.30;;;;;;5040137;28;20016;-66
2023/04/20 03:56:17;;;;;;;7.78;6.43;;;21.90;46.30;;;;;;5041594;28;20100;-67
2023/04/20 03:58:43;;;;;;;8.02;6.28;;;21.90;46.30;;;;;;5038014;28;20037;-66
2023/04/20 04:01:11;;;;;;;9.07;6.38;;;21.90;46.40;;;;;;5039501;28;20025;-66
2023/04/20 04:03:37;;;;;;;8.50;6.30;;;21.90;46.40;;;;;;5042332;28;20488;-66
2023/04/20 04:06:03;;;;;;;8.70;6.45;;;21.90;46.40;;;;;;5035984;28;20080;-66
2023/04/20 04:08:28;;;;;;;8.18;6.25;;;21.90;46.40;;;;;;5040698;28;20028;-66
2023/04/20 04:10:54;;;;;;;7.82;6.15;;;21.90;46.40;;;;;;5038826;28;20124;-66
2023/04/20 04:13:20;;;;;;;8.48;6.80;;;21.90;46.50;;;;;;5038421;28;20377;-66
2023/04/20 04:15:45;;;;;;;8.00;5.88;;;21.80;46.50;;;;;;5039086;28;20029;-66
2023/04/20 04:18:11;;;;;;;8.40;6.43;;;21.80;46.40;;;;;;5037317;28;20022;-66
2023/04/20 04:20:37;;;;;;;8.57;6.22;;;21.80;46.50;;;;;;5038798;28;20920;-65
2023/04/20 04:23:02;;;;;;;8.02;5.97;;;21.80;46.50;;;;;;5042488;28;20033;-66
2023/04/20 04:25:28;;;;;;;7.80;5.90;;;21.80;46.50;;;;;;5040093;28;20469;-65
2023/04/20 04:27:54;;;;;;;8.00;5.75;;;21.80;46.60;;;;;;5040058;28;20044;-65
2023/04/20 04:30:19;;;;;;;8.77;6.38;;;21.80;46.60;;;;;;5040032;28;20033;-65
2023/04/20 04:32:45;;;;;;;7.82;6.00;;;21.80;46.60;;;;;;5038921;28;20465;-66
2023/04/20 04:35:12;;;;;;;7.93;5.70;;;21.70;46.50;;;;;;5037271;28;20389;-65
2023/04/20 04:37:38;;;;;;;6.68;5.18;;;21.80;46.70;;;;;;5041183;28;20040;-65
2023/04/20 04:40:06;;;;;;;7.95;5.75;;;21.70;46.60;;;;;;5039077;28;20028;-64
2023/04/20 04:42:33;;;;;;;6.75;5.22;;;21.70;46.60;;;;;;5038039;28;20037;-64
2023/04/20 04:45:01;;;;;;;7.68;5.20;;;21.70;46.70;;;;;;5038666;28;20032;-65
2023/04/20 04:47:28;;;;;;;6.60;5.22;;;21.70;46.70;;;;;;5041365;28;20556;-65
2023/04/20 04:49:54;;;;;;;7.20;5.40;;;21.70;46.70;;;;;;5038505;28;20078;-65
2023/04/20 04:52:20;;;;;;;7.53;5.72;;;21.70;46.70;;;;;;5037793;28;20076;-65
2023/04/20 04:54:46;;;;;;;7.78;5.63;;;21.70;46.70;;;;;;5039864;28;20021;-65
2023/04/20 04:57:11;;;;;;;7.60;5.30;;;21.70;46.80;;;;;;5043934;28;20032;-65
2023/04/20 04:59:37;;;;;;;7.15;5.60;;;21.70;46.80;;;;;;5039105;28;20030;-65
2023/04/20 05:02:03;;;;;;;7.38;5.38;;;21.70;46.80;;;;;;5038799;28;20463;-65
2023/04/20 05:04:28;;;;;;;7.32;5.40;;;21.70;46.80;;;;;;5038648;28;20052;-65
2023/04/20 05:06:54;;;;;;;7.43;5.70;;;21.60;46.80;;;;;;5041224;28;20057;-65
2023/04/20 05:09:20;;;;;;;6.45;4.97;;;21.60;46.80;;;;;;5036443;28;20021;-65
2023/04/20 05:11:45;;;;;;;7.75;5.50;;;21.70;46.90;;;;;;5036284;28;20435;-65
2023/04/20 05:14:11;;;;;;;6.78;5.50;;;21.60;46.90;;;;;;5038072;28;20029;-65
2023/04/20 05:16:37;;;;;;;6.72;5.07;;;21.60;46.90;;;;;;5040951;28;20025;-64
2023/04/20 05:19:02;;;;;;;6.30;4.53;;;21.60;46.80;;;;;;5037698;28;20021;-65
2023/04/20 05:21:28;;;;;;;6.60;4.80;;;21.60;46.70;;;;;;5037354;28;20029;-65
2023/04/20 05:23:54;;;;;;;6.35;5.18;;;21.60;46.70;;;;;;5037533;28;20056;-64
2023/04/20 05:26:19;;;;;;;6.25;4.53;;;21.60;46.70;;;;;;5038858;28;20164;-64
2023/04/20 05:28:45;;;;;;;6.10;4.72;;;21.60;46.70;;;;;;5035843;28;20029;-65
2023/04/20 05:31:11;;;;;;;7.32;5.07;;;21.60;46.60;;;;;;5035007;28;20030;-65
2023/04/20 05:33:36;;;;;;;5.65;4.40;;;21.60;46.70;;;;;;5037394;28;20030;-65
2023/04/20 05:36:02;;;;;;;6.00;4.47;;;21.60;46.70;;;;;;5038730;28;20064;-64
2023/04/20 05:38:27;;;;;;;6.40;4.82;;;21.60;46.70;;;;;;5040386;28;20033;-65
2023/04/20 05:40:53;;;;;;;5.55;4.10;;;21.60;46.70;;;;;;5043015;28;20144;-64
2023/04/20 05:43:19;;;;;;;5.88;4.50;;;21.60;46.70;;;;;;5037948;28;20029;-64
2023/04/20 05:45:48;;;;;;;6.25;4.38;;;21.60;46.70;;;;;;5042350;28;20052;-64
2023/04/20 05:48:13;;;;;;;5.85;4.20;;;21.60;46.80;;;;;;5042616;28;20175;-64
2023/04/20 05:50:39;;;;;;;6.00;4.22;;;21.60;46.90;;;;;;5048588;28;20111;-65
2023/04/20 05:53:05;;;;;;;5.55;3.90;;;21.60;46.80;;;;;;5043818;28;20025;-64
2023/04/20 05:55:30;;;;;;;5.10;3.85;;;21.60;47.40;;;;;;5040951;28;20044;-64
2023/04/20 05:57:56;;;;;;;5.32;3.85;;;21.60;46.90;;;;;;5040850;28;20025;-64
2023/04/20 06:00:22;;;;;;;5.30;4.10;;;21.70;46.90;;;;;;5038935;28;20501;-65
2023/04/20 06:02:47;;;;;;;5.88;4.10;;;21.70;46.80;;;;;;5040549;28;20025;-64
2023/04/20 06:05:13;;;;;;;5.97;4.90;;;21.70;46.70;;;;;;5042898;28;20028;-64
2023/04/20 06:07:39;;;;;;;5.40;4.10;;;21.70;46.70;;;;;;5040692;28;20022;-64
2023/04/20 06:10:06;;;;;;;6.18;4.35;;;21.70;46.70;;;;;;5041098;28;20033;-64
2023/04/20 06:12:31;;;;;;;5.97;3.90;;;21.70;46.70;;;;;;5039717;28;20029;-64
2023/04/20 06:14:58;;;;;;;4.78;4.00;;;21.70;46.70;;;;;;5038941;28;20029;-65
2023/04/20 06:17:24;;;;;;;5.00;3.70;;;21.70;46.60;;;;;;5041583;28;20117;-65
2023/04/20 06:19:50;;;;;;;4.75;3.75;;;21.80;46.60;;;;;;5041343;28;20496;-64
2023/04/20 06:22:16;;;;;;;5.60;3.70;;;21.80;46.60;;;;;;5042061;28;20057;-65
2023/04/20 06:24:42;;;;;;;5.85;4.00;;;21.80;46.60;;;;;;5042657;28;20022;-64
2023/04/20 06:27:10;;;;;;;5.13;4.00;;;21.80;46.60;;;;;;5040585;28;20607;-64
2023/04/20 06:29:37;;;;;;;5.85;4.32;;;21.80;46.50;;;;;;5041209;28;20178;-64
2023/04/20 06:32:03;;;;;;;6.10;4.05;;;21.80;46.50;;;;;;5042029;28;20056;-64
2023/04/20 06:34:28;;;;;;;5.25;4.05;;;21.80;46.50;;;;;;5041014;28;20508;-64
2023/04/20 06:36:54;;;;;;;5.43;4.07;;;21.90;46.50;;;;;;5042468;28;20029;-64
2023/04/20 06:39:20;;;;;;;5.60;4.05;;;21.90;46.50;;;;;;5041309;28;20021;-64
2023/04/20 06:41:46;;;;;;;4.85;3.72;;;21.90;46.50;;;;;;5041103;28;20025;-64
2023/04/20 06:44:11;;;;;;;5.65;4.40;;;21.90;46.50;;;;;;5040994;28;20028;-65
2023/04/20 06:46:37;;;;;;;5.63;4.10;;;21.90;46.50;;;;;;5040403;28;20060;-65
2023/04/20 06:49:02;;;;;;;4.90;3.65;;;21.90;46.40;;;;;;5040662;28;20443;-65
2023/04/20 06:51:29;;;;;;;4.97;3.83;;;21.90;46.50;;;;;;5044161;28;20021;-65
2023/04/20 06:53:55;;;;;;;5.93;3.80;;;22.00;46.40;;;;;;5043998;28;20539;-64
2023/04/20 06:56:21;;;;;;;5.47;3.78;;;22.00;46.50;;;;;;5039105;28;20087;-64
2023/04/20 06:58:46;;;;;;;6.32;3.83;;;22.00;46.50;;;;;;5039452;28;20029;-65
2023/04/20 07:01:12;;;;;;;4.63;3.55;;;21.90;46.40;;;;;;5040145;28;20666;-63
2023/04/20 07:03:38;;;;;;;4.75;3.25;;;22.00;46.40;;;;;;5039050;28;20071;-65
2023/04/20 07:06:06;;;;;;;4.28;2.92;;;22.00;46.40;;;;;;5040873;28;20457;-65
2023/04/20 07:08:32;;;;;;;4.88;3.08;;;22.00;46.40;;;;;;5042251;28;20025;-65
2023/04/20 07:10:58;;;;;;;5.60;3.13;;;22.00;46.40;;;;;;5041494;28;20041;-65
2023/04/20 07:13:23;;;;;;;4.47;3.38;;;22.00;46.30;;;;;;5041129;28;20359;-64
2023/04/20 07:15:49;;;;;;;5.20;3.67;;;22.00;46.30;;;;;;5038386;28;20479;-64
2023/04/20 07:18:15;;;;;;;5.15;3.60;;;22.00;46.30;;;;;;5040137;28;20580;-64
2023/04/20 07:20:41;;;;;;;4.55;3.45;;;22.00;46.40;;;;;;5039697;28;20025;-64
2023/04/20 07:23:06;;;;;;;4.60;3.40;;;22.00;46.40;;;;;;5039411;28;20099;-64
2023/04/20 07:25:32;;;;;;;5.28;3.45;;;22.00;46.40;;;;;;5042800;28;20037;-64
2023/04/20 07:27:58;;;;;;;5.30;3.47;;;22.00;46.40;;;;;;5043363;28;20049;-63
2023/04/20 07:30:24;;;;;;;4.68;3.42;;;22.10;46.50;;;;;;5037416;28;20033;-63
2023/04/20 07:32:50;;;;;;;4.00;3.33;;;22.00;46.40;;;;;;5041932;28;20381;-63
2023/04/20 07:35:16;;;;;;;4.75;3.45;;;22.10;46.50;;;;;;5042822;28;20040;-64
2023/04/20 07:37:42;;;;;;;4.57;3.20;;;22.10;46.50;;;;;;5039902;28;20564;-64
2023/04/20 07:40:08;;;;;;;5.20;3.20;;;22.10;46.50;;;;;;5040608;28;20105;-64
2023/04/20 07:42:35;;;;;;;4.28;3.20;;;22.10;46.50;;;;;;5040231;28;20061;-63
2023/04/20 07:45:02;;;;;;;5.13;3.28;;;22.10;46.50;;;;;;5037801;28;20029;-63
2023/04/20 07:47:28;;;;;;;4.30;3.40;;;22.10;46.50;;;;;;5039872;28;20068;-63
2023/04/20 07:49:53;;;;;;;4.32;3.40;;;22.10;46.50;;;;;;5040633;28;20056;-64
2023/04/20 07:52:19;;;;;;;4.38;2.90;;;22.10;46.50;;;;;;5038177;28;20033;-64
2023/04/20 07:54:45;;;;;;;4.95;3.30;;;22.10;46.50;;;;;;5038344;28;20099;-64
2023/04/20 07:57:11;;;;;;;4.15;2.95;;;22.10;46.60;;;;;;5041508;28;20028;-64
2023/04/20 07:59:36;;;;;;;3.70;2.80;;;22.10;46.60;;;;;;5035794;28;20132;-64
2023/04/20 08:02:02;;;;;;;3.97;2.80;;;22.20;46.60;;;;;;5040433;28;20083;-64
2023/04/20 08:04:28;;;;;;;4.05;2.70;;;22.20;46.60;;;;;;5038310;28;20112;-60
2023/04/20 08:06:54;;;;;;;4.05;2.78;;;22.20;46.60;;;;;;5040010;28;20179;-64
2023/04/20 08:09:20;;;;;;;4.05;3.03;;;22.20;46.60;;;;;;5038578;28;20111;-64
2023/04/20 08:11:46;;;;;;;4.20;3.00;;;22.20;46.60;;;;;;5039044;28;20029;-64
2023/04/20 08:14:12;;;;;;;4.15;2.70;;;22.20;46.60;;;;;;5040215;28;20074;-64
2023/04/20 08:16:38;;;;;;;4.18;2.70;;;22.20;46.60;;;;;;5038993;28;20056;-64
2023/04/20 08:19:08;;;;;;;4.15;2.72;;;22.20;47.30;;;;;;5038858;28;20465;-64
2023/04/20 08:21:35;;;;;;;3.83;2.60;;;22.20;46.50;;;;;;5036810;28;20119;-64
2023/04/20 08:24:03;;;;;;;4.47;3.00;;;22.20;46.50;;;;;;5039534;28;20136;-64
2023/04/20 08:26:28;;;;;;;4.63;3.03;;;22.20;46.50;;;;;;5039289;28;20052;-64
2023/04/20 08:28:54;;;;;;;4.03;2.80;;;22.30;46.50;;;;;;5036622;28;20110;-64
2023/04/20 08:31:20;;;;;;;4.28;2.80;;;22.30;46.50;;;;;;5036784;28;20086;-65
2023/04/20 08:33:45;;;;;;;3.65;2.83;;;22.30;46.50;;;;;;5046877;28;20441;-64
2023/04/20 08:36:11;;;;;;;3.78;2.53;;;22.30;46.50;;;;;;5037090;28;20022;-64
2023/04/20 08:38:37;;;;;;;3.97;2.70;;;22.30;46.50;;;;;;5038072;28;20107;-64
2023/04/20 08:41:03;;;;;;;3.78;2.70;;;22.30;46.40;;;;;;5040134;28;20429;-64
2023/04/20 08:43:28;;;;;;;4.20;2.80;;;22.30;46.50;;;;;;5040881;28;20467;-64
2023/04/20 08:45:58;;;;;;;4.57;3.00;;;22.30;46.40;;;;;;5038001;28;20126;-64
2023/04/20 08:48:28;;;;;;;3.35;2.50;;;22.30;46.40;;;;;;5038188;28;20036;-64
2023/04/20 08:50:53;;;;;;;;;;;22.30;46.50;;;;;;5039312;28;20040;-64
2023/04/20 08:53:19;;;;;;;3.97;2.67;;;22.40;47.00;;;;;;5038310;28;19978;-64
2023/04/20 08:55:47;;;;;;;4.00;2.72;;;22.50;46.80;;;;;;5039821;28;20432;-64
2023/04/20 08:58:12;;;;;;;3.75;2.45;;;22.70;46.50;;;;;;5038533;28;20047;-64
2023/04/20 09:00:48;;;;;;;3.63;2.38;;;22.80;47.30;;;;;;5037358;28;20033;-64
2023/04/20 09:03:14;;;;;;;2.92;2.00;;;23.00;47.30;;;;;;5035836;28;20032;-64
2023/04/20 09:05:40;;;;;;;3.08;1.77;;;23.20;47.40;;;;;;5039325;28;20120;-60
2023/04/20 09:08:07;;;;;;;2.55;1.90;;;23.30;47.30;;;;;;5039298;28;20440;-64
2023/04/20 09:10:42;;;;;;;2.95;2.05;;;23.50;47.20;;;;;;5045055;28;20492;-64
2023/04/20 09:13:19;;;;;;;2.95;2.30;;;23.60;47.20;;;;;;5036045;28;20492;-64
2023/04/20 09:15:45;;;;;;;3.03;2.00;;;23.80;47.10;;;;;;5037823;28;20167;-64
2023/04/20 09:18:14;;;;;;;2.60;1.85;;;23.90;46.90;;;;;;5036183;28;20984;-64
2023/04/20 09:20:40;;;;;;;2.75;1.90;;;24.10;47.30;;;;;;5040094;28;20487;-64
2023/04/20 09:23:13;;;;;;;2.60;1.75;;;24.10;46.80;;;;;;5044576;28;20029;-64
2023/04/20 09:25:42;;;;;;;2.72;1.80;;;24.10;47.00;;;;;;5041896;28;20107;-64
2023/04/20 09:28:08;;;;;;;3.42;2.00;;;24.10;47.00;;;;;;5041230;28;20045;-64
2023/04/20 09:30:39;;;;;;;2.83;2.00;;;24.10;47.00;;;;;;5041985;28;20059;-63
2023/04/20 09:33:07;;;;;;;2.78;1.88;;;24.00;47.10;;;;;;5039571;28;20039;-65
2023/04/20 09:35:33;;;;;;;2.70;2.00;;;24.00;47.10;;;;;;5042088;28;20182;-65
2023/04/20 09:37:59;;;;;;;2.83;1.95;;;24.10;47.20;;;;;;5043847;28;20414;-65
2023/04/20 09:40:26;;;;;;;2.92;1.90;;;24.00;47.10;;;;;;5042907;28;20040;-65
2023/04/20 09:42:59;;;;;;;2.72;1.92;;;24.10;47.10;;;;;;5042066;28;20059;-64
2023/04/20 09:45:27;;;;;;;3.28;1.90;;;24.10;47.20;;;;;;5039434;28;20053;-65
2023/04/20 09:47:54;;;;;;;3.08;2.05;;;24.10;47.00;;;;;;5043924;28;20591;-64
2023/04/20 09:50:20;;;;;;;2.58;1.75;;;24.10;47.20;;;;;;5042222;28;20025;-64
2023/04/20 09:52:48;;;;;;;3.45;2.15;;;24.20;47.40;;;;;;5040348;28;20037;-64
2023/04/20 09:55:14;;;;;;;2.40;1.73;;;24.20;47.40;;;;;;5040297;28;20029;-65
2023/04/20 09:57:40;;;;;;;2.50;1.70;;;24.20;47.40;;;;;;5040264;28;20440;-65
2023/04/20 10:00:09;;;;;;;6.05;1.98;;;24.20;47.30;;;;;;5042437;28;20053;-65
2023/04/20 10:02:35;;;;;;;;;;;24.30;47.30;;;;;;5040489;28;20042;-64
2023/04/20 10:05:01;;;;;;;2.47;1.70;;;24.30;47.20;;;;;;5040637;28;19906;-64
2023/04/20 10:07:30;;;;;;;3.05;2.00;;;24.30;47.30;;;;;;5040877;28;20044;-65
2023/04/20 10:10:03;;;;;;;3.70;2.70;;;24.30;46.50;;;;;;5041685;28;20029;-65
2023/04/20 10:12:29;;;;;;;3.00;2.20;;;24.30;44.90;;;;;;5042683;28;20044;-65
2023/04/20 10:14:59;;;;;;;3.22;2.38;;;24.30;44.20;;;;;;5041560;28;20025;-65
2023/04/20 10:17:32;;;;;;;3.85;2.67;;;24.30;43.90;;;;;;5040776;28;20346;-65
2023/04/20 10:19:58;;;;;;;3.95;2.83;;;24.30;43.80;;;;;;5041625;28;20747;-65
2023/04/20 10:22:31;;;;;;;4.43;2.33;;;24.30;43.90;;;;;;5041683;28;20033;-64
2023/04/20 10:24:58;;;;;;;3.05;2.00;;;24.30;44.60;;;;;;5042853;28;20136;-64
2023/04/20 10:27:24;;;;;;;2.80;1.90;;;24.40;44.90;;;;;;5041499;28;20179;-64
2023/04/20 10:29:50;;;;;;;2.70;1.70;;;24.50;44.90;;;;;;5041449;28;20478;-64
2023/04/20 10:32:22;;;;;;;2.58;1.55;;;24.70;44.90;;;;;;5040878;28;20043;-64
2023/04/20 10:34:58;;;;;;;2.28;1.60;;;24.80;44.90;;;;;;5042036;28;20430;-64
2023/04/20 10:37:24;;;;;;;2.75;1.80;;;25.00;44.90;;;;;;5041717;28;20029;-64
2023/04/20 10:39:50;;;;;;;2.25;1.60;;;25.10;45.40;;;;;;5041022;28;20116;-64
2023/04/20 10:42:16;;;;;;;2.65;1.70;;;25.20;44.90;;;;;;5042603;28;20040;-65
2023/04/20 10:44:51;;;;;;;2.72;1.60;;;25.40;45.20;;;;;;5040259;28;20357;-64
2023/04/20 10:47:25;;;;;;;3.22;1.55;;;25.50;45.10;;;;;;5040544;28;20037;-65
2023/04/20 10:49:50;;;;;;;2.50;1.30;;;25.60;45.10;;;;;;5041815;28;20095;-64
2023/04/20 10:52:16;;;;;;;1.88;1.42;;;25.80;45.10;;;;;;5040533;28;20025;-65
2023/04/20 10:54:42;;;;;;;2.95;1.70;;;25.80;44.30;;;;;;5041181;28;20026;-65
2023/04/20 10:57:07;;;;;;;2.20;1.50;;;25.70;43.90;;;;;;5040584;28;20444;-64
2023/04/20 10:59:36;;;;;;;2.35;1.50;;;25.60;43.70;;;;;;5040387;28;20122;-65
2023/04/20 11:02:06;;;;;;;2.15;1.50;;;25.60;43.70;;;;;;5039093;28;20060;-65
2023/04/20 11:04:33;;;;;;;2.47;1.65;;;25.50;43.50;;;;;;5040669;28;20036;-65
2023/04/20 11:07:06;;;;;;;2.80;1.60;;;25.50;43.60;;;;;;5040907;28;20134;-65
2023/04/20 11:09:33;;;;;;;3.00;1.90;;;25.40;43.70;;;;;;5041523;28;20044;-65
2023/04/20 11:12:00;;;;;;;2.35;1.48;;;25.50;44.10;;;;;;5039186;28;20037;-64
2023/04/20 11:14:27;;;;;;;2.55;1.60;;;25.50;44.50;;;;;;5040695;28;20039;-65
2023/04/20 11:16:53;;;;;;;2.40;1.73;;;25.40;44.70;;;;;;5039792;28;20174;-65
2023/04/20 11:19:26;;;;;;;2.58;1.42;;;25.50;44.80;;;;;;5040125;28;20068;-65
2023/04/20 11:21:52;;;;;;;2.70;1.77;;;25.50;44.90;;;;;;5039128;28;20504;-65
2023/04/20 11:24:19;;;;;;;2.60;1.60;;;25.50;44.90;;;;;;5040815;28;20032;-64
2023/04/20 11:26:45;;;;;;;2.25;1.52;;;25.50;44.90;;;;;;5039821;28;20048;-65
2023/04/20 11:29:11;;;;;;;2.40;1.70;;;25.50;45.10;;;;;;5038254;28;20107;-66
2023/04/20 11:31:37;;;;;;;2.88;1.77;;;25.50;45.20;;;;;;5046005;28;20033;-66
2023/04/20 11:34:06;;;;;;;1.88;1.40;;;25.50;45.30;;;;;;5040734;28;20075;-66
2023/04/20 11:36:37;;;;;;;2.03;1.50;;;25.50;45.50;;;;;;5039775;28;20388;-66
2023/04/20 11:39:08;;;;;;;2.42;1.60;;;25.50;45.60;;;;;;5039384;28;20036;-66
2023/04/20 11:41:35;;;;;;;2.28;1.50;;;25.50;46.00;;;;;;5053747;28;20032;-66
2023/04/20 11:44:01;;;;;;;2.45;1.60;;;25.50;46.00;;;;;;5040068;28;20033;-66
2023/04/20 11:46:27;;;;;;;2.67;1.45;;;25.50;45.90;;;;;;5037178;28;20037;-66
2023/04/20 11:48:52;;;;;;;2.22;1.52;;;25.60;46.10;;;;;;5035216;28;20061;-66
2023/04/20 11:51:18;;;;;;;1.95;1.30;;;25.60;46.40;;;;;;5039273;28;20028;-66
2023/04/20 11:53:44;;;;;;;2.78;1.58;;;25.60;46.60;;;;;;5043188;28;20080;-65
2023/04/20 11:56:09;;;;;;;2.00;1.40;;;25.60;46.70;;;;;;5037629;28;20553;-66
2023/04/20 11:58:35;;;;;;;1.95;1.38;;;25.60;46.70;;;;;;5039577;28;20034;-66
2023/04/20 12:01:01;;;;;;;3.10;2.05;;;25.60;46.80;;;;;;5038696;28;20067;-66
2023/04/20 12:03:26;;;;;;;4.25;2.28;;;25.60;43.80;;;;;;5046413;28;20395;-67
2023/04/20 12:05:52;;;;;;;3.78;2.30;;;25.50;42.30;;;;;;5038669;28;20033;-66
2023/04/20 12:08:18;;;;;;;2.60;2.00;;;25.50;42.00;;;;;;5041266;28;20021;-66
2023/04/20 12:10:43;;;;;;;3.20;2.10;;;25.40;41.50;;;;;;5039070;28;20030;-66
2023/04/20 12:13:09;;;;;;;2.80;2.15;;;25.40;41.80;;;;;;5038509;28;20033;-66
2023/04/20 12:15:35;;;;;;;2.80;2.00;;;25.40;41.80;;;;;;5039052;28;20056;-67
2023/04/20 12:18:00;;;;;;;3.25;2.33;;;25.30;41.70;;;;;;5035837;28;20086;-67
2023/04/20 12:20:26;;;;;;;3.10;2.20;;;25.30;41.70;;;;;;5040572;28;20477;-65
2023/04/20 12:22:52;;;;;;;3.58;2.70;;;25.20;41.80;;;;;;5037263;28;20029;-66
2023/04/20 12:25:18;;;;;;;4.05;3.15;;;25.20;41.90;;;;;;5039106;28;20029;-66
2023/04/20 12:27:44;;;;;;;5.05;3.08;;;25.10;41.70;;;;;;5038419;28;20531;-66
2023/04/20 12:30:10;;;;;;;4.50;3.25;;;25.10;42.00;;;;;;5039513;28;20057;-65
2023/04/20 12:32:35;;;;;;;5.55;3.30;;;25.10;42.00;;;;;;5036266;28;20025;-65
2023/04/20 12:35:02;;;;;;;4.38;3.22;;;25.10;42.10;;;;;;5039072;28;20144;-66
2023/04/20 12:37:27;;;;;;;4.50;3.25;;;25.00;42.00;;;;;;5039064;28;20104;-66